sensor_id;sensor_type;location;lat;lon;timestamp;temperature;humidity
17845;DHT22;9047;53.486;10.218;2023-01-23T00:00:33;3.60;99.90
17845;DHT22;9047;53.486;10.218;2023-01-23T00:03:00;3.60;99.90
17845;DHT22;9047;53.486;10.218;2023-01-23T00:05:27;3.60;99.90
17845;DHT22;9047;53.486;10.218;2023-01-23T00:07:54;3.60;99.90
17845;DHT22;9047;53.486;10.218;2023-01-23T00:10:20;3.50;99.90
17845;DHT22;9047;53.486;10.218;2023-01-23T00:12:49;3.50;99.90
17845;DHT22;9047;53.486;10.218;2023-01-23T00:15:18;3.50;99.90
17845;DHT22;9047;53.486;10.218;2023-01-23T00:17:45;3.50;99.90
17845;DHT22;9047;53.486;10.218;2023-01-23T00:20:14;3.40;99.90
17845;DHT22;9047;53.486;10.218;2023-01-23T00:22:42;3.40;99.90
17845;DHT22;9047;53.486;10.218;2023-01-23T00:25:08;3.40;99.90
17845;DHT22;9047;53.486;10.218;2023-01-23T00:27:35;3.40;99.90
17845;DHT22;9047;53.486;10.218;2023-01-23T00:30:05;3.40;99.90
17845;DHT22;9047;53.486;10.218;2023-01-23T00:32:32;3.50;99.90
17845;DHT22;9047;53.486;10.218;2023-01-23T00:34:58;3.50;99.90
17845;DHT22;9047;53.486;10.218;2023-01-23T00:37:26;3.50;99.90
17845;DHT22;9047;53.486;10.218;2023-01-23T00:39:53;3.50;99.90
17845;DHT22;9047;53.486;10.218;2023-01-23T00:42:20;3.40;99.90
17845;DHT22;9047;53.486;10.218;2023-01-23T00:44:47;3.50;99.90
17845;DHT22;9047;53.486;10.218;2023-01-23T00:47:18;3.50;99.90
17845;DHT22;9047;53.486;10.218;2023-01-23T00:49:45;3.50;99.90
17845;DHT22;9047;53.486;10.218;2023-01-23T00:52:11;3.50;99.90
17845;DHT22;9047;53.486;10.218;2023-01-23T00:54:38;3.40;99.90
17845;DHT22;9047;53.486;10.218;2023-01-23T00:57:05;3.40;99.90
17845;DHT22;9047;53.486;10.218;2023-01-23T00:59:32;3.40;99.90
17845;DHT22;9047;53.486;10.218;2023-01-23T01:01:59;3.40;99.90
17845;DHT22;9047;53.486;10.218;2023-01-23T01:04:30;3.30;99.90
17845;DHT22;9047;53.486;10.218;2023-01-23T01:06:56;3.30;99.90
17845;DHT22;9047;53.486;10.218;2023-01-23T01:09:23;3.30;99.90
17845;DHT22;9047;53.486;10.218;2023-01-23T01:11:53;3.30;99.90
17845;DHT22;9047;53.486;10.218;2023-01-23T01:14:22;3.30;99.90
17845;DHT22;9047;53.486;10.218;2023-01-23T01:16:48;3.30;99.90
17845;DHT22;9047;53.486;10.218;2023-01-23T01:19:16;3.30;99.90
17845;DHT22;9047;53.486;10.218;2023-01-23T01:21:46;3.30;99.90
17845;DHT22;9047;53.486;10.218;2023-01-23T01:24:15;3.30;99.90
17845;DHT22;9047;53.486;10.218;2023-01-23T01:26:44;3.30;99.90
17845;DHT22;9047;53.486;10.218;2023-01-23T01:29:10;3.20;99.90
17845;DHT22;9047;53.486;10.218;2023-01-23T01:31:37;3.20;99.90
17845;DHT22;9047;53.486;10.218;2023-01-23T01:34:06;3.20;99.90
17845;DHT22;9047;53.486;10.218;2023-01-23T01:36:33;3.20;99.90
17845;DHT22;9047;53.486;10.218;2023-01-23T01:39:04;3.20;99.90
17845;DHT22;9047;53.486;10.218;2023-01-23T01:41:30;3.20;99.90
17845;DHT22;9047;53.486;10.218;2023-01-23T01:43:57;3.20;99.90
17845;DHT22;9047;53.486;10.218;2023-01-23T01:46:25;3.20;99.90
17845;DHT22;9047;53.486;10.218;2023-01-23T01:49:06;3.20;99.90
17845;DHT22;9047;53.486;10.218;2023-01-23T01:51:39;3.20;99.90
17845;DHT22;9047;53.486;10.218;2023-01-23T01:54:12;3.20;99.90
17845;DHT22;9047;53.486;10.218;2023-01-23T01:56:54;3.20;99.90
17845;DHT22;9047;53.486;10.218;2023-01-23T01:59:24;3.20;99.90
17845;DHT22;9047;53.486;10.218;2023-01-23T02:01:59;3.30;99.90
17845;DHT22;9047;53.486;10.218;2023-01-23T02:04:30;3.20;99.90
17845;DHT22;9047;53.486;10.218;2023-01-23T02:06:57;3.30;99.90
17845;DHT22;9047;53.486;10.218;2023-01-23T02:09:26;3.30;99.90
17845;DHT22;9047;53.486;10.218;2023-01-23T02:11:53;3.30;99.90
17845;DHT22;9047;53.486;10.218;2023-01-23T02:14:20;3.30;99.90
17845;DHT22;9047;53.486;10.218;2023-01-23T02:16:50;3.30;99.90
17845;DHT22;9047;53.486;10.218;2023-01-23T02:19:32;3.30;99.90
17845;DHT22;9047;53.486;10.218;2023-01-23T02:22:07;3.30;99.90
17845;DHT22;9047;53.486;10.218;2023-01-23T02:24:42;3.30;99.90
17845;DHT22;9047;53.486;10.218;2023-01-23T02:27:12;3.30;99.90
17845;DHT22;9047;53.486;10.218;2023-01-23T02:29:41;3.30;99.90
17845;DHT22;9047;53.486;10.218;2023-01-23T02:32:08;3.30;99.90
17845;DHT22;9047;53.486;10.218;2023-01-23T02:34:35;3.30;99.90
17845;DHT22;9047;53.486;10.218;2023-01-23T02:37:04;3.30;99.90
17845;DHT22;9047;53.486;10.218;2023-01-23T02:39:31;3.30;99.90
17845;DHT22;9047;53.486;10.218;2023-01-23T02:41:58;3.30;99.90
17845;DHT22;9047;53.486;10.218;2023-01-23T02:44:29;3.30;99.90
17845;DHT22;9047;53.486;10.218;2023-01-23T02:47:00;3.30;99.90
17845;DHT22;9047;53.486;10.218;2023-01-23T02:49:27;3.40;99.90
17845;DHT22;9047;53.486;10.218;2023-01-23T02:51:55;3.30;99.90
17845;DHT22;9047;53.486;10.218;2023-01-23T02:54:22;3.30;99.90
17845;DHT22;9047;53.486;10.218;2023-01-23T02:56:49;3.30;99.90
17845;DHT22;9047;53.486;10.218;2023-01-23T02:59:16;3.30;99.90
17845;DHT22;9047;53.486;10.218;2023-01-23T03:02:02;3.30;99.90
17845;DHT22;9047;53.486;10.218;2023-01-23T03:04:30;3.30;99.90
17845;DHT22;9047;53.486;10.218;2023-01-23T03:06:57;3.30;99.90
17845;DHT22;9047;53.486;10.218;2023-01-23T03:09:25;3.30;99.90
17845;DHT22;9047;53.486;10.218;2023-01-23T03:11:51;3.30;99.90
17845;DHT22;9047;53.486;10.218;2023-01-23T03:14:20;3.30;99.90
17845;DHT22;9047;53.486;10.218;2023-01-23T03:16:48;3.30;99.90
17845;DHT22;9047;53.486;10.218;2023-01-23T03:19:19;3.20;99.90
17845;DHT22;9047;53.486;10.218;2023-01-23T03:21:47;3.30;99.90
17845;DHT22;9047;53.486;10.218;2023-01-23T03:24:14;3.30;99.90
17845;DHT22;9047;53.486;10.218;2023-01-23T03:26:44;3.30;99.90
17845;DHT22;9047;53.486;10.218;2023-01-23T03:29:14;3.30;99.90
17845;DHT22;9047;53.486;10.218;2023-01-23T03:31:58;3.30;99.90
17845;DHT22;9047;53.486;10.218;2023-01-23T03:34:26;3.30;99.90
17845;DHT22;9047;53.486;10.218;2023-01-23T03:36:53;3.30;99.90
17845;DHT22;9047;53.486;10.218;2023-01-23T03:39:20;3.30;99.90
17845;DHT22;9047;53.486;10.218;2023-01-23T03:42:04;3.30;99.90
17845;DHT22;9047;53.486;10.218;2023-01-23T03:44:31;3.20;99.90
17845;DHT22;9047;53.486;10.218;2023-01-23T03:46:58;3.20;99.90
17845;DHT22;9047;53.486;10.218;2023-01-23T03:49:26;3.20;99.90
17845;DHT22;9047;53.486;10.218;2023-01-23T03:51:53;3.20;99.90
17845;DHT22;9047;53.486;10.218;2023-01-23T03:54:20;3.20;99.90
17845;DHT22;9047;53.486;10.218;2023-01-23T03:56:47;3.20;99.90
17845;DHT22;9047;53.486;10.218;2023-01-23T03:59:15;3.20;99.90
17845;DHT22;9047;53.486;10.218;2023-01-23T04:01:41;3.20;99.90
17845;DHT22;9047;53.486;10.218;2023-01-23T04:04:08;3.20;99.90
17845;DHT22;9047;53.486;10.218;2023-01-23T04:06:37;3.20;99.90
17845;DHT22;9047;53.486;10.218;2023-01-23T04:09:04;3.20;99.90
17845;DHT22;9047;53.486;10.218;2023-01-23T04:11:31;3.20;99.90
17845;DHT22;9047;53.486;10.218;2023-01-23T04:13:58;3.10;99.90
17845;DHT22;9047;53.486;10.218;2023-01-23T04:16:24;3.10;99.90
17845;DHT22;9047;53.486;10.218;2023-01-23T04:18:53;3.20;99.90
17845;DHT22;9047;53.486;10.218;2023-01-23T04:21:21;3.20;99.90
17845;DHT22;9047;53.486;10.218;2023-01-23T04:23:49;3.20;99.90
17845;DHT22;9047;53.486;10.218;2023-01-23T04:26:16;3.20;99.90
17845;DHT22;9047;53.486;10.218;2023-01-23T04:28:43;3.10;99.90
17845;DHT22;9047;53.486;10.218;2023-01-23T04:31:10;3.20;99.90
17845;DHT22;9047;53.486;10.218;2023-01-23T04:33:39;3.20;99.90
17845;DHT22;9047;53.486;10.218;2023-01-23T04:36:06;3.20;99.90
17845;DHT22;9047;53.486;10.218;2023-01-23T04:38:34;3.20;99.90
17845;DHT22;9047;53.486;10.218;2023-01-23T04:41:03;3.20;99.90
17845;DHT22;9047;53.486;10.218;2023-01-23T04:43:30;3.10;99.90
17845;DHT22;9047;53.486;10.218;2023-01-23T04:45:57;3.10;99.90
17845;DHT22;9047;53.486;10.218;2023-01-23T04:48:24;3.10;99.90
17845;DHT22;9047;53.486;10.218;2023-01-23T04:50:51;3.10;99.90
17845;DHT22;9047;53.486;10.218;2023-01-23T04:53:18;3.20;99.90
17845;DHT22;9047;53.486;10.218;2023-01-23T04:55:46;3.10;99.90
17845;DHT22;9047;53.486;10.218;2023-01-23T04:58:16;3.10;99.90
17845;DHT22;9047;53.486;10.218;2023-01-23T05:00:43;3.10;99.90
17845;DHT22;9047;53.486;10.218;2023-01-23T05:03:10;3.10;99.90
17845;DHT22;9047;53.486;10.218;2023-01-23T05:05:36;3.10;99.90
17845;DHT22;9047;53.486;10.218;2023-01-23T05:08:03;3.10;99.90
17845;DHT22;9047;53.486;10.218;2023-01-23T05:10:30;3.20;99.90
17845;DHT22;9047;53.486;10.218;2023-01-23T05:12:57;3.20;99.90
17845;DHT22;9047;53.486;10.218;2023-01-23T05:15:25;3.10;99.90
17845;DHT22;9047;53.486;10.218;2023-01-23T05:17:52;3.10;99.90
17845;DHT22;9047;53.486;10.218;2023-01-23T05:20:19;3.10;99.90
17845;DHT22;9047;53.486;10.218;2023-01-23T05:22:48;3.10;99.90
17845;DHT22;9047;53.486;10.218;2023-01-23T05:25:18;3.10;99.90
17845;DHT22;9047;53.486;10.218;2023-01-23T05:27:46;3.10;99.90
17845;DHT22;9047;53.486;10.218;2023-01-23T05:30:14;3.10;99.90
17845;DHT22;9047;53.486;10.218;2023-01-23T05:32:42;3.10;99.90
17845;DHT22;9047;53.486;10.218;2023-01-23T05:35:10;3.10;99.90
17845;DHT22;9047;53.486;10.218;2023-01-23T05:37:37;3.10;99.90
17845;DHT22;9047;53.486;10.218;2023-01-23T05:40:04;3.10;99.90
17845;DHT22;9047;53.486;10.218;2023-01-23T05:42:33;3.20;99.90
17845;DHT22;9047;53.486;10.218;2023-01-23T05:45:01;3.20;99.90
17845;DHT22;9047;53.486;10.218;2023-01-23T05:47:28;3.10;99.90
17845;DHT22;9047;53.486;10.218;2023-01-23T05:49:58;3.20;99.90
17845;DHT22;9047;53.486;10.218;2023-01-23T05:52:26;3.20;99.90
17845;DHT22;9047;53.486;10.218;2023-01-23T05:54:52;3.20;99.90
17845;DHT22;9047;53.486;10.218;2023-01-23T05:57:19;3.20;99.90
17845;DHT22;9047;53.486;10.218;2023-01-23T05:59:46;3.20;99.90
17845;DHT22;9047;53.486;10.218;2023-01-23T06:02:15;3.20;99.90
17845;DHT22;9047;53.486;10.218;2023-01-23T06:04:42;3.20;99.90
17845;DHT22;9047;53.486;10.218;2023-01-23T06:07:12;3.20;99.90
17845;DHT22;9047;53.486;10.218;2023-01-23T06:09:38;3.20;99.90
17845;DHT22;9047;53.486;10.218;2023-01-23T06:12:08;3.20;99.90
17845;DHT22;9047;53.486;10.218;2023-01-23T06:14:35;3.10;99.90
17845;DHT22;9047;53.486;10.218;2023-01-23T06:17:02;3.20;99.90
17845;DHT22;9047;53.486;10.218;2023-01-23T06:19:29;3.10;99.90
17845;DHT22;9047;53.486;10.218;2023-01-23T06:21:56;3.10;99.90
17845;DHT22;9047;53.486;10.218;2023-01-23T06:24:24;3.20;99.90
17845;DHT22;9047;53.486;10.218;2023-01-23T06:26:51;3.20;99.90
17845;DHT22;9047;53.486;10.218;2023-01-23T06:29:19;3.10;99.90
17845;DHT22;9047;53.486;10.218;2023-01-23T06:31:47;3.10;99.90
17845;DHT22;9047;53.486;10.218;2023-01-23T06:34:16;3.10;99.90
17845;DHT22;9047;53.486;10.218;2023-01-23T06:36:43;3.10;99.90
17845;DHT22;9047;53.486;10.218;2023-01-23T06:39:12;3.10;99.90
17845;DHT22;9047;53.486;10.218;2023-01-23T06:41:41;3.20;99.90
17845;DHT22;9047;53.486;10.218;2023-01-23T06:44:08;3.10;99.90
17845;DHT22;9047;53.486;10.218;2023-01-23T06:46:35;3.20;99.90
17845;DHT22;9047;53.486;10.218;2023-01-23T06:49:03;3.20;99.90
17845;DHT22;9047;53.486;10.218;2023-01-23T06:51:30;3.20;99.90
17845;DHT22;9047;53.486;10.218;2023-01-23T06:53:58;3.20;99.90
17845;DHT22;9047;53.486;10.218;2023-01-23T06:56:25;3.20;99.90
17845;DHT22;9047;53.486;10.218;2023-01-23T06:58:55;3.20;99.90
17845;DHT22;9047;53.486;10.218;2023-01-23T07:01:22;3.20;99.90
17845;DHT22;9047;53.486;10.218;2023-01-23T07:03:50;3.20;99.90
17845;DHT22;9047;53.486;10.218;2023-01-23T07:06:17;3.20;99.90
17845;DHT22;9047;53.486;10.218;2023-01-23T07:08:44;3.20;99.90
17845;DHT22;9047;53.486;10.218;2023-01-23T07:11:11;3.20;99.90
17845;DHT22;9047;53.486;10.218;2023-01-23T07:13:38;3.20;99.90
17845;DHT22;9047;53.486;10.218;2023-01-23T07:16:07;3.20;99.90
17845;DHT22;9047;53.486;10.218;2023-01-23T07:18:34;3.20;99.90
17845;DHT22;9047;53.486;10.218;2023-01-23T07:21:03;3.10;99.90
17845;DHT22;9047;53.486;10.218;2023-01-23T07:23:30;3.10;99.90
17845;DHT22;9047;53.486;10.218;2023-01-23T07:26:00;3.10;99.90
17845;DHT22;9047;53.486;10.218;2023-01-23T07:28:28;3.10;99.90
17845;DHT22;9047;53.486;10.218;2023-01-23T07:30:56;3.10;99.90
17845;DHT22;9047;53.486;10.218;2023-01-23T07:33:24;3.10;99.90
17845;DHT22;9047;53.486;10.218;2023-01-23T07:35:51;3.10;99.90
17845;DHT22;9047;53.486;10.218;2023-01-23T07:38:19;3.10;99.90
17845;DHT22;9047;53.486;10.218;2023-01-23T07:40:48;3.10;99.90
17845;DHT22;9047;53.486;10.218;2023-01-23T07:43:14;3.10;99.90
17845;DHT22;9047;53.486;10.218;2023-01-23T07:45:41;3.10;99.90
17845;DHT22;9047;53.486;10.218;2023-01-23T07:48:09;3.20;99.90
17845;DHT22;9047;53.486;10.218;2023-01-23T07:50:37;3.20;99.90
17845;DHT22;9047;53.486;10.218;2023-01-23T07:53:04;3.30;99.90
17845;DHT22;9047;53.486;10.218;2023-01-23T07:55:33;3.30;99.90
17845;DHT22;9047;53.486;10.218;2023-01-23T07:58:01;3.20;99.90
17845;DHT22;9047;53.486;10.218;2023-01-23T08:00:28;3.30;99.90
17845;DHT22;9047;53.486;10.218;2023-01-23T08:02:55;3.30;99.90
17845;DHT22;9047;53.486;10.218;2023-01-23T08:05:22;3.20;99.90
17845;DHT22;9047;53.486;10.218;2023-01-23T08:07:51;3.20;99.90
17845;DHT22;9047;53.486;10.218;2023-01-23T08:10:18;3.20;99.90
17845;DHT22;9047;53.486;10.218;2023-01-23T08:12:44;3.20;99.90
17845;DHT22;9047;53.486;10.218;2023-01-23T08:15:12;3.20;99.90
17845;DHT22;9047;53.486;10.218;2023-01-23T08:17:38;3.20;99.90
17845;DHT22;9047;53.486;10.218;2023-01-23T08:20:10;3.20;99.90
17845;DHT22;9047;53.486;10.218;2023-01-23T08:22:37;3.30;99.90
17845;DHT22;9047;53.486;10.218;2023-01-23T08:25:09;3.30;99.90
17845;DHT22;9047;53.486;10.218;2023-01-23T08:27:36;3.40;99.90
17845;DHT22;9047;53.486;10.218;2023-01-23T08:30:04;3.40;99.90
17845;DHT22;9047;53.486;10.218;2023-01-23T08:32:31;3.40;99.90
17845;DHT22;9047;53.486;10.218;2023-01-23T08:35:02;3.40;99.90
17845;DHT22;9047;53.486;10.218;2023-01-23T08:37:29;3.40;99.90
17845;DHT22;9047;53.486;10.218;2023-01-23T08:39:58;3.50;99.90
17845;DHT22;9047;53.486;10.218;2023-01-23T08:42:27;3.50;99.90
17845;DHT22;9047;53.486;10.218;2023-01-23T08:44:55;3.50;99.90
17845;DHT22;9047;53.486;10.218;2023-01-23T08:47:22;3.50;99.90
17845;DHT22;9047;53.486;10.218;2023-01-23T08:49:51;3.50;99.90
17845;DHT22;9047;53.486;10.218;2023-01-23T08:52:20;3.50;99.90
17845;DHT22;9047;53.486;10.218;2023-01-23T08:54:46;3.50;99.90
17845;DHT22;9047;53.486;10.218;2023-01-23T08:57:14;3.60;99.90
17845;DHT22;9047;53.486;10.218;2023-01-23T08:59:42;3.60;99.90
17845;DHT22;9047;53.486;10.218;2023-01-23T09:02:10;3.70;99.90
17845;DHT22;9047;53.486;10.218;2023-01-23T09:04:38;3.70;99.90
17845;DHT22;9047;53.486;10.218;2023-01-23T09:07:06;3.80;99.90
17845;DHT22;9047;53.486;10.218;2023-01-23T09:09:34;3.80;99.90
17845;DHT22;9047;53.486;10.218;2023-01-23T09:12:00;3.80;99.90
17845;DHT22;9047;53.486;10.218;2023-01-23T09:14:28;3.90;99.90
17845;DHT22;9047;53.486;10.218;2023-01-23T09:16:57;3.90;99.90
17845;DHT22;9047;53.486;10.218;2023-01-23T09:19:24;3.90;99.90
17845;DHT22;9047;53.486;10.218;2023-01-23T09:21:52;4.00;99.90
17845;DHT22;9047;53.486;10.218;2023-01-23T09:24:19;4.10;99.90
17845;DHT22;9047;53.486;10.218;2023-01-23T09:26:46;4.10;99.90
17845;DHT22;9047;53.486;10.218;2023-01-23T09:29:13;4.10;99.90
17845;DHT22;9047;53.486;10.218;2023-01-23T09:31:40;4.20;99.90
17845;DHT22;9047;53.486;10.218;2023-01-23T09:34:09;4.20;99.90
17845;DHT22;9047;53.486;10.218;2023-01-23T09:36:36;4.20;99.90
17845;DHT22;9047;53.486;10.218;2023-01-23T09:39:05;4.10;99.90
17845;DHT22;9047;53.486;10.218;2023-01-23T09:41:32;4.20;99.90
17845;DHT22;9047;53.486;10.218;2023-01-23T09:44:06;4.20;99.90
17845;DHT22;9047;53.486;10.218;2023-01-23T09:46:40;4.20;99.90
17845;DHT22;9047;53.486;10.218;2023-01-23T09:49:16;4.30;99.90
17845;DHT22;9047;53.486;10.218;2023-01-23T09:51:51;4.30;99.90
17845;DHT22;9047;53.486;10.218;2023-01-23T09:54:29;4.40;99.90
17845;DHT22;9047;53.486;10.218;2023-01-23T09:57:01;4.40;99.90
17845;DHT22;9047;53.486;10.218;2023-01-23T09:59:35;4.40;99.90
17845;DHT22;9047;53.486;10.218;2023-01-23T10:02:11;4.50;99.90
17845;DHT22;9047;53.486;10.218;2023-01-23T10:04:41;4.50;99.90
17845;DHT22;9047;53.486;10.218;2023-01-23T10:07:16;4.50;99.90
17845;DHT22;9047;53.486;10.218;2023-01-23T10:10:00;4.60;99.90
17845;DHT22;9047;53.486;10.218;2023-01-23T10:12:38;4.60;99.90
17845;DHT22;9047;53.486;10.218;2023-01-23T10:15:31;4.60;99.90
17845;DHT22;9047;53.486;10.218;2023-01-23T10:18:09;4.60;99.90
17845;DHT22;9047;53.486;10.218;2023-01-23T10:20:50;4.70;99.90
17845;DHT22;9047;53.486;10.218;2023-01-23T10:26:17;4.70;99.90
17845;DHT22;9047;53.486;10.218;2023-01-23T10:28:45;4.70;99.90
17845;DHT22;9047;53.486;10.218;2023-01-23T10:31:25;4.70;99.90
17845;DHT22;9047;53.486;10.218;2023-01-23T10:33:59;4.80;99.90
17845;DHT22;9047;53.486;10.218;2023-01-23T10:36:35;4.80;99.90
17845;DHT22;9047;53.486;10.218;2023-01-23T10:39:04;4.80;99.90
17845;DHT22;9047;53.486;10.218;2023-01-23T10:41:32;4.80;99.90
17845;DHT22;9047;53.486;10.218;2023-01-23T10:44:00;4.80;99.90
17845;DHT22;9047;53.486;10.218;2023-01-23T10:46:30;4.90;99.90
17845;DHT22;9047;53.486;10.218;2023-01-23T10:49:01;4.90;99.90
17845;DHT22;9047;53.486;10.218;2023-01-23T10:51:33;4.90;99.90
17845;DHT22;9047;53.486;10.218;2023-01-23T10:54:08;4.90;99.90
17845;DHT22;9047;53.486;10.218;2023-01-23T10:56:44;4.90;99.90
17845;DHT22;9047;53.486;10.218;2023-01-23T10:59:19;5.00;99.90
17845;DHT22;9047;53.486;10.218;2023-01-23T11:02:01;5.10;99.90
17845;DHT22;9047;53.486;10.218;2023-01-23T11:04:30;5.10;99.90
17845;DHT22;9047;53.486;10.218;2023-01-23T11:07:07;5.10;99.90
17845;DHT22;9047;53.486;10.218;2023-01-23T11:09:47;5.10;99.90
17845;DHT22;9047;53.486;10.218;2023-01-23T11:12:17;5.10;99.90
17845;DHT22;9047;53.486;10.218;2023-01-23T11:14:45;5.30;99.90
17845;DHT22;9047;53.486;10.218;2023-01-23T11:17:21;5.30;99.90
17845;DHT22;9047;53.486;10.218;2023-01-23T11:19:50;5.10;99.90
17845;DHT22;9047;53.486;10.218;2023-01-23T11:22:32;5.20;99.90
17845;DHT22;9047;53.486;10.218;2023-01-23T11:25:25;5.10;99.90
17845;DHT22;9047;53.486;10.218;2023-01-23T11:27:56;5.00;99.90
17845;DHT22;9047;53.486;10.218;2023-01-23T11:30:34;5.00;99.90
17845;DHT22;9047;53.486;10.218;2023-01-23T11:33:11;4.90;99.90
17845;DHT22;9047;53.486;10.218;2023-01-23T11:35:50;5.00;99.90
17845;DHT22;9047;53.486;10.218;2023-01-23T11:38:25;5.10;99.90
17845;DHT22;9047;53.486;10.218;2023-01-23T11:40:52;5.10;99.90
17845;DHT22;9047;53.486;10.218;2023-01-23T11:43:21;5.10;99.90
17845;DHT22;9047;53.486;10.218;2023-01-23T11:46:12;5.10;99.90
17845;DHT22;9047;53.486;10.218;2023-01-23T11:49:07;5.10;99.90
17845;DHT22;9047;53.486;10.218;2023-01-23T11:51:39;5.10;99.90
17845;DHT22;9047;53.486;10.218;2023-01-23T11:54:31;5.10;99.90
17845;DHT22;9047;53.486;10.218;2023-01-23T11:57:10;5.10;99.90
17845;DHT22;9047;53.486;10.218;2023-01-23T11:59:50;5.10;99.90
17845;DHT22;9047;53.486;10.218;2023-01-23T12:06:08;5.10;99.90
17845;DHT22;9047;53.486;10.218;2023-01-23T12:08:42;5.10;99.90
17845;DHT22;9047;53.486;10.218;2023-01-23T12:11:17;5.10;99.90
17845;DHT22;9047;53.486;10.218;2023-01-23T12:13:59;5.10;99.90
17845;DHT22;9047;53.486;10.218;2023-01-23T12:16:38;5.00;99.90
17845;DHT22;9047;53.486;10.218;2023-01-23T12:19:21;5.00;99.90
17845;DHT22;9047;53.486;10.218;2023-01-23T12:21:56;5.00;99.90
17845;DHT22;9047;53.486;10.218;2023-01-23T12:24:38;5.00;99.90
17845;DHT22;9047;53.486;10.218;2023-01-23T12:27:14;5.00;99.90
17845;DHT22;9047;53.486;10.218;2023-01-23T12:30:10;5.00;99.90
17845;DHT22;9047;53.486;10.218;2023-01-23T12:32:51;5.00;99.90
17845;DHT22;9047;53.486;10.218;2023-01-23T12:35:29;5.00;99.90
17845;DHT22;9047;53.486;10.218;2023-01-23T12:38:09;5.10;99.90
17845;DHT22;9047;53.486;10.218;2023-01-23T12:40:43;5.10;99.90
17845;DHT22;9047;53.486;10.218;2023-01-23T12:43:16;5.00;99.90
17845;DHT22;9047;53.486;10.218;2023-01-23T12:45:49;5.00;99.90
17845;DHT22;9047;53.486;10.218;2023-01-23T12:48:22;5.00;99.90
17845;DHT22;9047;53.486;10.218;2023-01-23T12:50:58;5.00;99.90
17845;DHT22;9047;53.486;10.218;2023-01-23T12:53:27;5.00;99.90
17845;DHT22;9047;53.486;10.218;2023-01-23T12:56:00;5.00;99.90
17845;DHT22;9047;53.486;10.218;2023-01-23T12:58:34;5.00;99.90
17845;DHT22;9047;53.486;10.218;2023-01-23T13:01:14;5.00;99.90
17845;DHT22;9047;53.486;10.218;2023-01-23T13:04:01;5.00;99.90
17845;DHT22;9047;53.486;10.218;2023-01-23T13:06:49;5.00;99.90
17845;DHT22;9047;53.486;10.218;2023-01-23T13:09:28;5.00;99.90
17845;DHT22;9047;53.486;10.218;2023-01-23T13:12:05;5.00;99.90
17845;DHT22;9047;53.486;10.218;2023-01-23T13:14:39;5.00;99.90
17845;DHT22;9047;53.486;10.218;2023-01-23T13:17:26;5.00;99.90
17845;DHT22;9047;53.486;10.218;2023-01-23T13:19:53;5.00;99.90
17845;DHT22;9047;53.486;10.218;2023-01-23T13:22:51;5.00;99.90
17845;DHT22;9047;53.486;10.218;2023-01-23T13:25:19;5.00;99.90
17845;DHT22;9047;53.486;10.218;2023-01-23T13:27:53;5.10;99.90
17845;DHT22;9047;53.486;10.218;2023-01-23T13:30:41;4.90;99.90
17845;DHT22;9047;53.486;10.218;2023-01-23T13:36:32;4.90;99.90
17845;DHT22;9047;53.486;10.218;2023-01-23T13:39:02;4.90;99.90
17845;DHT22;9047;53.486;10.218;2023-01-23T13:41:31;4.90;99.90
17845;DHT22;9047;53.486;10.218;2023-01-23T13:44:03;4.90;99.90
17845;DHT22;9047;53.486;10.218;2023-01-23T13:46:41;4.90;99.90
17845;DHT22;9047;53.486;10.218;2023-01-23T13:49:21;4.90;99.90
17845;DHT22;9047;53.486;10.218;2023-01-23T13:52:09;4.90;99.90
17845;DHT22;9047;53.486;10.218;2023-01-23T13:54:57;4.90;99.90
17845;DHT22;9047;53.486;10.218;2023-01-23T13:57:42;5.00;99.90
17845;DHT22;9047;53.486;10.218;2023-01-23T14:00:15;5.00;99.90
17845;DHT22;9047;53.486;10.218;2023-01-23T14:02:52;5.00;99.90
17845;DHT22;9047;53.486;10.218;2023-01-23T14:05:37;5.00;99.90
17845;DHT22;9047;53.486;10.218;2023-01-23T14:08:19;5.00;99.90
17845;DHT22;9047;53.486;10.218;2023-01-23T14:10:47;5.00;99.90
17845;DHT22;9047;53.486;10.218;2023-01-23T14:13:15;5.10;99.90
17845;DHT22;9047;53.486;10.218;2023-01-23T14:15:47;5.00;99.90
17845;DHT22;9047;53.486;10.218;2023-01-23T14:18:36;5.00;99.90
17845;DHT22;9047;53.486;10.218;2023-01-23T14:21:05;5.00;99.90
17845;DHT22;9047;53.486;10.218;2023-01-23T14:23:35;5.00;99.90
17845;DHT22;9047;53.486;10.218;2023-01-23T14:26:04;5.00;99.90
17845;DHT22;9047;53.486;10.218;2023-01-23T14:28:35;4.90;99.90
17845;DHT22;9047;53.486;10.218;2023-01-23T14:31:05;4.90;99.90
17845;DHT22;9047;53.486;10.218;2023-01-23T14:33:42;4.90;99.90
17845;DHT22;9047;53.486;10.218;2023-01-23T14:36:18;4.80;99.90
17845;DHT22;9047;53.486;10.218;2023-01-23T14:38:47;4.80;99.90
17845;DHT22;9047;53.486;10.218;2023-01-23T14:41:14;4.80;99.90
17845;DHT22;9047;53.486;10.218;2023-01-23T14:43:45;4.80;99.90
17845;DHT22;9047;53.486;10.218;2023-01-23T14:46:15;4.80;99.90
17845;DHT22;9047;53.486;10.218;2023-01-23T14:48:48;4.80;99.90
17845;DHT22;9047;53.486;10.218;2023-01-23T14:51:19;4.80;99.90
17845;DHT22;9047;53.486;10.218;2023-01-23T14:53:52;4.80;99.90
17845;DHT22;9047;53.486;10.218;2023-01-23T14:56:22;4.80;99.90
17845;DHT22;9047;53.486;10.218;2023-01-23T14:58:53;4.70;99.90
17845;DHT22;9047;53.486;10.218;2023-01-23T15:01:21;4.70;99.90
17845;DHT22;9047;53.486;10.218;2023-01-23T15:03:57;4.70;99.90
17845;DHT22;9047;53.486;10.218;2023-01-23T15:06:26;4.60;99.90
17845;DHT22;9047;53.486;10.218;2023-01-23T15:08:53;4.60;99.90
17845;DHT22;9047;53.486;10.218;2023-01-23T15:11:26;4.50;99.90
17845;DHT22;9047;53.486;10.218;2023-01-23T15:13:55;4.50;99.90
17845;DHT22;9047;53.486;10.218;2023-01-23T15:16:30;4.50;99.90
17845;DHT22;9047;53.486;10.218;2023-01-23T15:19:05;4.40;99.90
17845;DHT22;9047;53.486;10.218;2023-01-23T15:21:37;4.40;99.90
17845;DHT22;9047;53.486;10.218;2023-01-23T15:24:25;4.40;99.90
17845;DHT22;9047;53.486;10.218;2023-01-23T15:27:02;4.40;99.90
17845;DHT22;9047;53.486;10.218;2023-01-23T15:29:32;4.30;99.90
17845;DHT22;9047;53.486;10.218;2023-01-23T15:32:00;4.30;99.90
17845;DHT22;9047;53.486;10.218;2023-01-23T15:34:30;4.30;99.90
17845;DHT22;9047;53.486;10.218;2023-01-23T15:37:01;4.30;99.90
17845;DHT22;9047;53.486;10.218;2023-01-23T15:39:32;4.20;99.90
17845;DHT22;9047;53.486;10.218;2023-01-23T15:42:02;4.20;99.90
17845;DHT22;9047;53.486;10.218;2023-01-23T15:44:31;4.20;99.90
17845;DHT22;9047;53.486;10.218;2023-01-23T15:46:58;4.20;99.90
17845;DHT22;9047;53.486;10.218;2023-01-23T15:49:31;4.20;99.90
17845;DHT22;9047;53.486;10.218;2023-01-23T15:52:00;4.10;99.90
17845;DHT22;9047;53.486;10.218;2023-01-23T15:54:31;4.10;99.90
17845;DHT22;9047;53.486;10.218;2023-01-23T15:56:59;4.10;99.90
17845;DHT22;9047;53.486;10.218;2023-01-23T15:59:26;4.10;99.90
17845;DHT22;9047;53.486;10.218;2023-01-23T16:01:57;4.10;99.90
17845;DHT22;9047;53.486;10.218;2023-01-23T16:04:27;4.10;99.90
17845;DHT22;9047;53.486;10.218;2023-01-23T16:06:56;4.10;99.90
17845;DHT22;9047;53.486;10.218;2023-01-23T16:09:27;4.10;99.90
17845;DHT22;9047;53.486;10.218;2023-01-23T16:11:56;4.00;99.90
17845;DHT22;9047;53.486;10.218;2023-01-23T16:14:22;4.10;99.90
17845;DHT22;9047;53.486;10.218;2023-01-23T16:16:49;4.10;99.90